createdAt,value
2018-12-24T00:02:12.343Z,96529.98
2018-12-24T00:05:02.149Z,96525.67
2018-12-24T00:07:51.927Z,96511.48
2018-12-24T00:10:41.788Z,96513.23
2018-12-24T00:13:31.711Z,96508.08
2018-12-24T00:16:14.175Z,96497.74
2018-12-24T00:19:04.031Z,96487.87
2018-12-24T00:21:54.085Z,96473.27
2018-12-24T00:24:44.023Z,96462.53
2018-12-24T00:27:40.893Z,96454.36
2018-12-24T00:30:30.855Z,96466.38
2018-12-24T00:33:20.667Z,96455.22
2018-12-24T00:36:10.832Z,96468.96
2018-12-24T00:39:00.749Z,96468.53
2018-12-24T00:41:50.606Z,96462.08
2018-12-24T00:44:40.550Z,96450.05
2018-12-24T00:47:30.316Z,96444.50
2018-12-24T00:50:20.484Z,96435.02
2018-12-24T00:53:10.333Z,96454.78
2018-12-24T00:56:00.744Z,96420.81
2018-12-24T00:58:50.534Z,96421.25
2018-12-24T01:01:40.306Z,96433.30
2018-12-24T01:04:30.341Z,96428.96
2018-12-24T01:07:20.114Z,96431.54
2018-12-24T01:10:10.044Z,96428.97
2018-12-24T01:12:59.875Z,96431.12
2018-12-24T01:18:37.608Z,96425.06
2018-12-24T01:21:27.461Z,96421.64
2018-12-24T01:24:17.314Z,96424.63
2018-12-24T01:27:07.171Z,96427.64
2018-12-24T01:29:57.018Z,96428.47
2018-12-24T01:32:46.794Z,96420.31
2018-12-24T01:35:36.571Z,96413.87
2018-12-24T01:38:26.355Z,96406.15
2018-12-24T01:41:16.234Z,96394.55
2018-12-24T01:44:06.084Z,96400.98
2018-12-24T01:46:56.784Z,96390.26
2018-12-24T01:49:46.619Z,96396.27
2018-12-24T01:52:36.387Z,96397.52
2018-12-24T01:55:45.273Z,96386.38
2018-12-24T01:58:35.054Z,96384.23
2018-12-24T02:01:24.915Z,96377.37
2018-12-24T02:04:15.428Z,96375.19
2018-12-24T02:07:05.347Z,96380.37
2018-12-24T02:09:55.173Z,96381.23
2018-12-24T02:12:45.028Z,96385.10
2018-12-24T02:15:34.872Z,96376.92
2018-12-24T02:18:17.320Z,96373.92
2018-12-24T02:21:07.246Z,96377.79
2018-12-24T02:23:57.071Z,96400.12
2018-12-24T02:26:46.922Z,96440.11
2018-12-24T02:29:55.632Z,96552.25
2018-12-24T02:32:45.483Z,96597.33
2018-12-24T02:35:35.630Z,96585.27
2018-12-24T02:38:25.791Z,96547.05
2018-12-24T02:41:35.070Z,96567.55
2018-12-24T02:44:24.903Z,96572.63
2018-12-24T02:47:14.739Z,96561.94
2018-12-24T02:50:04.795Z,96557.77
2018-12-24T02:52:54.560Z,96577.73
2018-12-24T02:55:44.418Z,96565.84
2018-12-24T02:58:34.180Z,96571.39
2018-12-24T03:01:24.020Z,96573.91
2018-12-24T03:04:13.782Z,96586.30
2018-12-24T03:07:03.875Z,96592.36
2018-12-24T03:09:53.706Z,96608.08
2018-12-24T03:12:43.553Z,96603.36
2018-12-24T03:15:33.364Z,96620.96
2018-12-24T03:18:15.906Z,96625.66
2018-12-24T03:21:05.803Z,96646.52
2018-12-24T03:23:55.967Z,96644.30
2018-12-24T03:26:45.768Z,96641.31
2018-12-24T03:29:35.677Z,96642.06
2018-12-24T03:32:25.598Z,96667.23
2018-12-24T03:35:15.434Z,96678.33
2018-12-24T03:38:05.607Z,96676.83
2018-12-24T03:41:15.899Z,96670.67
2018-12-24T03:44:05.735Z,96680.27
2018-12-24T03:46:55.655Z,96687.92
2018-12-24T03:49:45.494Z,96693.72
2018-12-24T03:52:35.598Z,96694.43
2018-12-24T03:55:25.441Z,96693.06
2018-12-24T03:58:15.292Z,96703.00
2018-12-24T04:01:05.119Z,96722.83
2018-12-24T04:04:13.991Z,96745.91
2018-12-24T04:07:04.164Z,96781.74
2018-12-24T04:09:54.100Z,96807.19
2018-12-24T04:12:43.974Z,96813.94
2018-12-24T04:15:33.738Z,96823.11
2018-12-24T04:18:16.403Z,96830.49
2018-12-24T04:21:06.608Z,96826.16
2018-12-24T04:23:56.732Z,96826.16
2018-12-24T04:26:46.570Z,96832.50
2018-12-24T04:29:36.669Z,96818.86
2018-12-24T04:32:26.421Z,96834.23
2018-12-24T04:35:16.196Z,96853.66
2018-12-24T04:38:06.126Z,96879.74
2018-12-24T04:40:55.981Z,96914.53
2018-12-24T04:43:46.084Z,96935.34
2018-12-24T04:46:36.286Z,96953.36
2018-12-24T04:49:26.355Z,96960.53
2018-12-24T04:52:16.376Z,96967.30
2018-12-24T04:55:06.631Z,96975.23
2018-12-24T04:57:56.672Z,96979.32
2018-12-24T05:00:46.523Z,96978.45
2018-12-24T05:03:36.310Z,96990.16
2018-12-24T05:06:26.399Z,97011.09
2018-12-24T05:09:16.630Z,97022.39
2018-12-24T05:12:25.260Z,97031.80
2018-12-24T05:15:15.172Z,97045.08
2018-12-24T05:17:57.383Z,97062.59
2018-12-24T05:20:47.551Z,97061.58
2018-12-24T05:23:37.633Z,97077.14
2018-12-24T05:26:27.473Z,97102.35
2018-12-24T05:29:17.325Z,97111.16
2018-12-24T05:32:07.227Z,97124.26
2018-12-24T05:34:57.078Z,97128.89
2018-12-24T05:37:47.244Z,97144.98
2018-12-24T05:40:37.032Z,97159.00
2018-12-24T05:43:26.812Z,97172.50
2018-12-24T05:46:16.908Z,97190.52
2018-12-24T05:49:06.658Z,97213.45
2018-12-24T05:51:56.834Z,97214.70
2018-12-24T05:55:05.717Z,97218.56
2018-12-24T05:57:55.927Z,97228.66
2018-12-24T06:00:46.097Z,97237.31
2018-12-24T06:03:36.243Z,97244.41
2018-12-24T06:06:26.349Z,97253.98
2018-12-24T06:09:16.398Z,97265.55
2018-12-24T06:12:06.625Z,97281.33
2018-12-24T06:14:56.690Z,97282.97
2018-12-24T06:17:38.711Z,97298.59
2018-12-24T06:20:28.490Z,97312.23
2018-12-24T06:23:18.327Z,97319.77
2018-12-24T06:26:08.363Z,97317.54
2018-12-24T06:28:58.854Z,97336.16
2018-12-24T06:31:48.722Z,97350.67
2018-12-24T06:34:38.667Z,97373.09
2018-12-24T06:37:28.841Z,97382.31
2018-12-24T06:40:18.735Z,97395.88
2018-12-24T06:43:08.499Z,97404.10
2018-12-24T06:45:58.812Z,97406.38
2018-12-24T06:48:48.642Z,97416.98
2018-12-24T06:51:38.429Z,97422.22
2018-12-24T06:54:28.512Z,97436.89
2018-12-24T06:57:18.433Z,97455.11
2018-12-24T07:00:08.383Z,97464.09
2018-12-24T07:02:58.265Z,97465.02
2018-12-24T07:05:48.844Z,97474.95
2018-12-24T07:08:39.045Z,97494.50
2018-12-24T07:11:48.090Z,97490.31
2018-12-24T07:14:37.922Z,97497.41
2018-12-24T07:17:21.160Z,97507.04
2018-12-24T07:20:11.007Z,97511.80
2018-12-24T07:23:00.948Z,97511.63
2018-12-24T07:25:51.134Z,97522.06
2018-12-24T07:29:00.103Z,97522.02
2018-12-24T07:31:50.274Z,97528.75
2018-12-24T07:34:40.126Z,97547.89
2018-12-24T07:37:30.371Z,97546.36
2018-12-24T07:40:20.217Z,97565.59
2018-12-24T07:43:10.064Z,97569.64
2018-12-24T07:45:59.905Z,97570.52
2018-12-24T07:48:50.072Z,97584.22
2018-12-24T07:51:39.906Z,97594.13
2018-12-24T07:54:29.766Z,97606.27
2018-12-24T07:57:19.675Z,97615.91
2018-12-24T08:00:09.746Z,97624.63
2018-12-24T08:02:59.616Z,97619.61
2018-12-24T08:05:49.663Z,97635.81
2018-12-24T08:08:39.755Z,97650.39
2018-12-24T08:11:29.859Z,97667.05
2018-12-24T08:14:19.748Z,97675.95
2018-12-24T08:17:01.834Z,97689.87
2018-12-24T08:22:47.513Z,97693.70
2018-12-24T08:25:37.612Z,97702.01
2018-12-24T08:28:27.558Z,97712.59
2018-12-24T08:31:17.323Z,97716.47
2018-12-24T08:34:07.440Z,97724.84
2018-12-24T08:36:57.277Z,97730.78
2018-12-24T08:39:47.479Z,97733.48
2018-12-24T08:42:37.305Z,97737.57
2018-12-24T08:45:27.413Z,97744.05
2018-12-24T08:48:36.466Z,97747.27
2018-12-24T08:54:35.427Z,97763.95
2018-12-24T08:57:25.382Z,97776.28
2018-12-24T09:00:34.130Z,97784.87
2018-12-24T09:03:24.293Z,97792.32
2018-12-24T09:06:14.170Z,97799.88
2018-12-24T09:09:23.080Z,97810.37
2018-12-24T09:15:21.691Z,97825.11
2018-12-24T09:18:04.439Z,97824.66
2018-12-24T09:20:54.288Z,97827.45
2018-12-24T09:23:44.141Z,97836.66
2018-12-24T09:26:53.177Z,97841.25
2018-12-24T09:29:43.410Z,97839.91
2018-12-24T09:36:01.525Z,97848.56
2018-12-24T09:38:51.464Z,97846.23
2018-12-24T09:48:05.211Z,97861.00
2018-12-24T09:50:54.990Z,97868.15
2018-12-24T09:53:45.181Z,97877.94
2018-12-24T09:56:35.300Z,97887.60
2018-12-24T09:59:25.518Z,97887.65
2018-12-24T10:02:34.619Z,97899.17
2018-12-24T10:05:26.188Z,97905.52
2018-12-24T10:08:38.247Z,97904.81
2018-12-24T10:11:28.396Z,97912.41
2018-12-24T10:14:18.767Z,97914.52
2018-12-24T10:17:00.991Z,97914.95
2018-12-24T10:19:51.067Z,97917.16
2018-12-24T10:22:41.256Z,97916.04
2018-12-24T10:25:31.396Z,97926.41
2018-12-24T10:28:21.533Z,97935.98
2018-12-24T10:31:12.072Z,97937.32
2018-12-24T10:34:01.842Z,97941.39
2018-12-24T10:36:51.998Z,97943.11
2018-12-24T10:39:42.166Z,97948.34
2018-12-24T10:42:32.098Z,97948.00
2018-12-24T10:45:21.938Z,97949.06
2018-12-24T10:48:11.843Z,97952.91
2018-12-24T10:51:01.687Z,97954.81
2018-12-24T10:54:10.535Z,97963.16
2018-12-24T10:57:00.490Z,97953.45
2018-12-24T10:59:50.698Z,97947.82
2018-12-24T11:02:40.931Z,97953.61
2018-12-24T11:05:30.906Z,97952.92
2018-12-24T11:08:21.101Z,97948.33
2018-12-24T11:11:11.302Z,97961.78
2018-12-24T11:14:01.234Z,97956.35
2018-12-24T11:16:43.734Z,97961.83
2018-12-24T11:19:34.266Z,97963.02
2018-12-24T11:22:24.351Z,97964.13
2018-12-24T11:25:14.537Z,97964.97
2018-12-24T11:28:04.771Z,97966.41
2018-12-24T11:30:54.820Z,97965.39
2018-12-24T11:33:44.734Z,97965.33
2018-12-24T11:36:34.620Z,97986.77
2018-12-24T11:39:24.732Z,97985.98
2018-12-24T11:42:14.854Z,97988.84
2018-12-24T11:45:04.883Z,97995.04
2018-12-24T11:47:54.754Z,97990.66
2018-12-24T11:50:44.669Z,97994.75
2018-12-24T11:53:34.530Z,98001.75
2018-12-24T11:56:24.363Z,97997.23
2018-12-24T11:59:14.237Z,97997.61
2018-12-24T12:02:09.891Z,98008.52
2018-12-24T12:04:56.445Z,98005.20
2018-12-24T12:07:46.763Z,98002.22
2018-12-24T12:10:36.951Z,98003.50
2018-12-24T12:13:26.822Z,98009.76
2018-12-24T12:16:35.659Z,98017.28
2018-12-24T12:19:18.476Z,98024.41
2018-12-24T12:22:08.670Z,98026.87
2018-12-24T12:24:59.214Z,98023.52
2018-12-24T12:27:49.136Z,98028.94
2018-12-24T12:30:58.266Z,98032.59
2018-12-24T12:33:48.427Z,98023.86
2018-12-24T12:36:38.276Z,98036.64
2018-12-24T12:39:28.428Z,98042.27
2018-12-24T12:42:18.339Z,98049.09
2018-12-24T12:45:08.279Z,98055.96
2018-12-24T12:47:58.124Z,98048.19
2018-12-24T12:50:48.175Z,98058.83
2018-12-24T12:53:38.231Z,98052.54
2018-12-24T12:56:28.154Z,98060.17
2018-12-24T12:59:18.088Z,98053.98
2018-12-24T13:02:27.157Z,98067.28
2018-12-24T13:05:17.374Z,98072.59
2018-12-24T13:08:07.146Z,98062.01
2018-12-24T13:10:56.998Z,98082.46
2018-12-24T13:13:47.101Z,98083.67
2018-12-24T13:16:36.950Z,98082.72
2018-12-24T13:19:26.833Z,98084.19
2018-12-24T13:22:35.994Z,98082.00
2018-12-24T13:25:26.070Z,98078.47
2018-12-24T13:28:15.916Z,98088.48
2018-12-24T13:31:05.874Z,98097.63
2018-12-24T13:33:55.734Z,98100.61
2018-12-24T13:36:45.590Z,98104.02
2018-12-24T13:39:35.509Z,98100.98
2018-12-24T13:42:25.341Z,98117.55
2018-12-24T13:45:15.217Z,98124.30
2018-12-24T13:48:04.973Z,98128.68
2018-12-24T13:50:55.467Z,98130.81
2018-12-24T13:53:45.478Z,98140.08
2018-12-24T13:56:35.410Z,98139.25
2018-12-24T13:59:25.177Z,98145.75
2018-12-24T14:02:16.516Z,98140.30
2018-12-24T14:05:06.858Z,98153.03
2018-12-24T14:07:56.610Z,98155.84
2018-12-24T14:10:46.387Z,98162.10
2018-12-24T14:13:36.224Z,98161.36
2018-12-24T14:16:26.097Z,98163.61
2018-12-24T14:19:08.700Z,98169.38
2018-12-24T14:22:17.713Z,98167.11
2018-12-24T14:25:26.642Z,98166.23
2018-12-24T14:28:16.503Z,98174.50
2018-12-24T14:34:01.901Z,98170.55
2018-12-24T14:36:51.651Z,98177.29
2018-12-24T14:39:41.502Z,98179.10
2018-12-24T14:42:50.346Z,98178.22
2018-12-24T14:45:40.538Z,98190.96
2018-12-24T14:48:30.370Z,98208.33
2018-12-24T14:51:20.138Z,98217.95
2018-12-24T14:54:10.238Z,98211.07
2018-12-24T14:57:00.083Z,98218.95
2018-12-24T14:59:49.921Z,98220.99
2018-12-24T15:02:40.108Z,98234.36
2018-12-24T15:05:30.045Z,98235.04
2018-12-24T15:08:19.890Z,98238.52
2018-12-24T15:11:10.081Z,98237.80
2018-12-24T15:14:00.272Z,98243.44
2018-12-24T15:16:50.051Z,98244.89
2018-12-24T15:19:39.964Z,98256.00
2018-12-24T15:22:29.728Z,98260.58
2018-12-24T15:25:19.571Z,98272.14
2018-12-24T15:28:09.489Z,98264.95
2018-12-24T15:30:59.782Z,98281.09
2018-12-24T15:33:49.954Z,98283.48
2018-12-24T15:39:35.621Z,98297.21
2018-12-24T15:42:25.554Z,98294.28
2018-12-24T15:45:15.744Z,98303.28
2018-12-24T15:48:05.665Z,98304.57
2018-12-24T15:50:55.520Z,98312.11
2018-12-24T15:53:45.271Z,98312.83
2018-12-24T15:56:35.537Z,98310.83
2018-12-24T15:59:26.108Z,98299.33
2018-12-24T16:02:15.966Z,98308.58
2018-12-24T16:05:06.357Z,98313.46
2018-12-24T16:07:56.169Z,98314.38
2018-12-24T16:10:46.279Z,98317.89
2018-12-24T16:13:36.449Z,98324.94
2018-12-24T16:16:26.242Z,98319.37
2018-12-24T16:19:08.865Z,98330.37
2018-12-24T16:21:58.726Z,98333.58
2018-12-24T16:24:48.515Z,98339.02
2018-12-24T16:27:57.168Z,98343.89
2018-12-24T16:30:47.102Z,98352.36
2018-12-24T16:33:37.370Z,98347.97
2018-12-24T16:36:27.174Z,98353.63
2018-12-24T16:39:16.961Z,98361.69
2018-12-24T16:42:06.822Z,98361.76
2018-12-24T16:44:57.375Z,98369.52
2018-12-24T16:47:47.231Z,98370.47
2018-12-24T16:50:37.170Z,98374.93
2018-12-24T16:53:27.446Z,98382.27
2018-12-24T16:59:07.160Z,98383.38
2018-12-24T17:01:57.333Z,98386.98
2018-12-24T17:04:47.104Z,98387.54
2018-12-24T17:10:33.135Z,98399.41
2018-12-24T17:13:23.346Z,98407.00
2018-12-24T17:16:13.502Z,98406.84
2018-12-24T17:18:56.534Z,98399.02
2018-12-24T17:21:46.456Z,98386.88
2018-12-24T17:24:36.311Z,98385.74
2018-12-24T17:27:26.077Z,98378.55
2018-12-24T17:30:16.031Z,98384.47
2018-12-24T17:33:05.876Z,98387.30
2018-12-24T17:35:56.025Z,98388.89
2018-12-24T17:39:04.777Z,98397.36
2018-12-24T17:41:54.691Z,98392.64
2018-12-24T17:44:44.625Z,98397.81
2018-12-24T17:47:34.821Z,98397.95
2018-12-24T17:50:25.013Z,98404.91
2018-12-24T17:56:23.818Z,98422.23
2018-12-24T17:59:13.870Z,98425.79
2018-12-24T18:02:03.673Z,98419.49
2018-12-24T18:04:53.935Z,98423.50
2018-12-24T18:07:43.779Z,98422.98
2018-12-24T18:10:34.088Z,98432.81
2018-12-24T18:13:24.134Z,98437.95
2018-12-24T18:16:13.965Z,98443.75
2018-12-24T18:18:56.319Z,98440.32
2018-12-24T18:21:46.242Z,98443.05
2018-12-24T18:24:36.181Z,98443.37
2018-12-24T18:27:26.387Z,98441.47
2018-12-24T18:30:35.035Z,98448.34
2018-12-24T18:33:25.201Z,98451.72
2018-12-24T18:36:15.100Z,98456.82
2018-12-24T18:39:06.985Z,98459.38
2018-12-24T18:41:56.846Z,98454.61
2018-12-24T18:44:46.600Z,98459.08
2018-12-24T18:47:36.419Z,98467.62
2018-12-24T18:50:26.186Z,98456.16
2018-12-24T18:53:16.268Z,98456.17
2018-12-24T18:56:06.381Z,98455.70
2018-12-24T18:59:15.007Z,98465.78
2018-12-24T19:02:05.208Z,98458.52
2018-12-24T19:04:57.854Z,98455.38
2018-12-24T19:10:56.382Z,98450.21
2018-12-24T19:13:46.406Z,98456.22
2018-12-24T19:16:36.430Z,98449.20
2018-12-24T19:19:19.324Z,98451.04
2018-12-24T19:22:09.175Z,98457.08
2018-12-24T19:24:59.112Z,98467.50
2018-12-24T19:27:49.032Z,98480.91
2018-12-24T19:30:38.989Z,98498.44
2018-12-24T19:33:28.949Z,98504.72
2018-12-24T19:36:18.874Z,98499.94
2018-12-24T19:39:08.780Z,98497.62
2018-12-24T19:45:13.430Z,98507.53
2018-12-24T19:48:03.295Z,98521.28
2018-12-24T19:50:53.346Z,98536.18
2018-12-24T19:53:43.092Z,98540.12
2018-12-24T19:56:33.179Z,98533.48
2018-12-24T19:59:23.336Z,98532.71
2018-12-24T20:02:13.193Z,98525.91
2018-12-24T20:05:03.387Z,98527.06
2018-12-24T20:08:12.295Z,98532.95
2018-12-24T20:11:02.118Z,98532.23
2018-12-24T20:13:51.975Z,98531.61
2018-12-24T20:16:41.916Z,98527.86
2018-12-24T20:19:22.900Z,98543.02
2018-12-24T20:28:03.962Z,98554.95
2018-12-24T20:30:53.890Z,98562.59
2018-12-24T20:34:02.873Z,98567.21
2018-12-24T20:36:53.043Z,98570.42
2018-12-24T20:39:43.080Z,98575.58
2018-12-24T20:42:33.008Z,98570.79
2018-12-24T20:45:22.852Z,98579.84
2018-12-24T20:48:12.702Z,98585.50
2018-12-24T20:54:11.253Z,98584.06
2018-12-24T20:57:01.936Z,98580.81
2018-12-24T21:00:10.991Z,98590.73
2018-12-24T21:03:01.247Z,98583.76
2018-12-24T21:05:51.262Z,98576.79
2018-12-24T21:08:41.031Z,98577.68
2018-12-24T21:11:31.218Z,98585.09
2018-12-24T21:17:22.635Z,98599.69
2018-12-24T21:20:12.557Z,98602.84
2018-12-24T21:23:02.482Z,98603.42
2018-12-24T21:25:52.307Z,98605.28
2018-12-24T21:28:42.382Z,98604.30
2018-12-24T21:31:32.155Z,98604.30
2018-12-24T21:34:22.022Z,98605.77
2018-12-24T21:37:12.135Z,98610.88
2018-12-24T21:40:02.528Z,98615.48
2018-12-24T21:42:54.755Z,98612.03
2018-12-24T21:45:43.984Z,98611.81
2018-12-24T21:48:33.867Z,98618.30
2018-12-24T21:51:24.308Z,98621.21
2018-12-24T21:53:55.453Z,98621.88
2018-12-24T21:56:45.290Z,98624.43
2018-12-24T21:59:35.683Z,98614.84
2018-12-24T22:02:39.618Z,98616.27
2018-12-24T22:05:30.930Z,98616.98
2018-12-24T22:08:20.777Z,98617.55
2018-12-24T22:11:10.563Z,98623.41
2018-12-24T22:14:00.486Z,98633.70
2018-12-24T22:16:50.268Z,98644.13
2018-12-24T22:19:33.275Z,98643.16
2018-12-24T22:22:43.967Z,98648.53
2018-12-24T22:28:29.564Z,98659.97
2018-12-24T22:34:28.361Z,98669.16
2018-12-24T22:37:18.574Z,98674.83
2018-12-24T22:40:08.341Z,98678.64
2018-12-24T22:42:58.382Z,98681.05
2018-12-24T22:45:48.454Z,98678.93
2018-12-24T22:48:40.852Z,98687.63
2018-12-24T22:51:30.343Z,98686.94
2018-12-24T22:54:20.522Z,98689.36
2018-12-24T22:57:10.241Z,98696.29
2018-12-24T23:00:00.020Z,98695.91
2018-12-24T23:02:49.935Z,98694.56
2018-12-24T23:05:39.792Z,98691.73
2018-12-24T23:08:29.551Z,98710.73
2018-12-24T23:11:19.427Z,98715.14
2018-12-24T23:14:09.619Z,98721.52
2018-12-24T23:16:59.882Z,98731.56
2018-12-24T23:19:49.729Z,98725.62
2018-12-24T23:22:39.490Z,98733.43
2018-12-24T23:25:29.337Z,98738.04
2018-12-24T23:28:19.195Z,98744.20
2018-12-24T23:31:09.268Z,98741.86
2018-12-24T23:33:59.113Z,98741.27
2018-12-24T23:36:49.024Z,98739.11
2018-12-24T23:39:38.781Z,98740.60
2018-12-24T23:42:28.641Z,98745.41
2018-12-24T23:45:18.875Z,98750.34
2018-12-24T23:48:08.643Z,98746.42
2018-12-24T23:50:58.806Z,98743.41
2018-12-24T23:54:07.521Z,98748.96
2018-12-24T23:56:57.816Z,98753.50
2018-12-24T23:59:47.583Z,98753.50
